sensor_id;sensor_type;location;lat;lon;timestamp;P1;durP1;ratioP1;P2;durP2;ratioP2
57247;SDS011;55809;46.618;10.764;2024-01-30T00:01:23;4.30;;;1.15;;
57247;SDS011;55809;46.618;10.764;2024-01-30T00:03:50;2.95;;;1.08;;
57247;SDS011;55809;46.618;10.764;2024-01-30T00:06:18;5.07;;;1.45;;
57247;SDS011;55809;46.618;10.764;2024-01-30T00:08:47;3.03;;;1.35;;
57247;SDS011;55809;46.618;10.764;2024-01-30T00:11:15;1.58;;;0.70;;
57247;SDS011;55809;46.618;10.764;2024-01-30T00:13:42;3.25;;;0.90;;
57247;SDS011;55809;46.618;10.764;2024-01-30T00:16:19;3.05;;;1.00;;
57247;SDS011;55809;46.618;10.764;2024-01-30T00:18:46;2.95;;;0.90;;
57247;SDS011;55809;46.618;10.764;2024-01-30T00:21:13;2.35;;;0.60;;
57247;SDS011;55809;46.618;10.764;2024-01-30T00:23:40;2.60;;;0.60;;
57247;SDS011;55809;46.618;10.764;2024-01-30T00:26:08;1.38;;;0.60;;
57247;SDS011;55809;46.618;10.764;2024-01-30T00:28:36;2.80;;;0.90;;
57247;SDS011;55809;46.618;10.764;2024-01-30T00:31:03;2.50;;;0.70;;
57247;SDS011;55809;46.618;10.764;2024-01-30T00:33:30;1.60;;;0.52;;
57247;SDS011;55809;46.618;10.764;2024-01-30T00:35:57;1.77;;;0.75;;
57247;SDS011;55809;46.618;10.764;2024-01-30T00:38:24;2.80;;;0.80;;
57247;SDS011;55809;46.618;10.764;2024-01-30T00:40:51;3.28;;;1.23;;
57247;SDS011;55809;46.618;10.764;2024-01-30T00:43:19;4.65;;;1.42;;
57247;SDS011;55809;46.618;10.764;2024-01-30T00:45:46;5.07;;;2.00;;
57247;SDS011;55809;46.618;10.764;2024-01-30T00:48:13;6.75;;;2.65;;
57247;SDS011;55809;46.618;10.764;2024-01-30T00:50:40;6.30;;;2.38;;
57247;SDS011;55809;46.618;10.764;2024-01-30T00:53:07;6.22;;;2.30;;
57247;SDS011;55809;46.618;10.764;2024-01-30T00:55:34;6.80;;;2.50;;
57247;SDS011;55809;46.618;10.764;2024-01-30T00:58:01;7.82;;;2.72;;
57247;SDS011;55809;46.618;10.764;2024-01-30T01:00:29;5.32;;;1.98;;
57247;SDS011;55809;46.618;10.764;2024-01-30T01:02:57;5.47;;;2.05;;
57247;SDS011;55809;46.618;10.764;2024-01-30T01:05:24;3.90;;;1.50;;
57247;SDS011;55809;46.618;10.764;2024-01-30T01:07:51;5.13;;;1.63;;
57247;SDS011;55809;46.618;10.764;2024-01-30T01:10:18;3.03;;;0.90;;
57247;SDS011;55809;46.618;10.764;2024-01-30T01:12:45;4.28;;;1.13;;
57247;SDS011;55809;46.618;10.764;2024-01-30T01:15:12;2.08;;;0.90;;
57247;SDS011;55809;46.618;10.764;2024-01-30T01:17:41;2.72;;;0.90;;
57247;SDS011;55809;46.618;10.764;2024-01-30T01:20:08;2.97;;;0.90;;
57247;SDS011;55809;46.618;10.764;2024-01-30T01:22:35;3.40;;;1.10;;
57247;SDS011;55809;46.618;10.764;2024-01-30T01:25:04;2.45;;;1.15;;
57247;SDS011;55809;46.618;10.764;2024-01-30T01:27:32;3.45;;;1.10;;
57247;SDS011;55809;46.618;10.764;2024-01-30T01:29:59;2.60;;;0.82;;
57247;SDS011;55809;46.618;10.764;2024-01-30T01:32:26;2.85;;;0.77;;
57247;SDS011;55809;46.618;10.764;2024-01-30T01:34:55;2.13;;;0.75;;
57247;SDS011;55809;46.618;10.764;2024-01-30T01:37:22;2.30;;;0.80;;
57247;SDS011;55809;46.618;10.764;2024-01-30T01:39:51;3.38;;;1.30;;
57247;SDS011;55809;46.618;10.764;2024-01-30T01:42:18;5.70;;;1.80;;
57247;SDS011;55809;46.618;10.764;2024-01-30T01:44:45;5.35;;;1.90;;
57247;SDS011;55809;46.618;10.764;2024-01-30T01:47:12;4.60;;;1.48;;
57247;SDS011;55809;46.618;10.764;2024-01-30T01:49:39;3.53;;;1.10;;
57247;SDS011;55809;46.618;10.764;2024-01-30T01:52:07;3.55;;;1.10;;
57247;SDS011;55809;46.618;10.764;2024-01-30T01:54:35;3.97;;;1.20;;
57247;SDS011;55809;46.618;10.764;2024-01-30T01:57:02;3.80;;;1.20;;
57247;SDS011;55809;46.618;10.764;2024-01-30T01:59:29;2.78;;;0.70;;
57247;SDS011;55809;46.618;10.764;2024-01-30T02:01:56;2.75;;;1.10;;
57247;SDS011;55809;46.618;10.764;2024-01-30T02:04:23;1.88;;;0.77;;
57247;SDS011;55809;46.618;10.764;2024-01-30T02:06:50;2.75;;;1.17;;
57247;SDS011;55809;46.618;10.764;2024-01-30T02:09:19;1.73;;;0.80;;
57247;SDS011;55809;46.618;10.764;2024-01-30T02:11:46;3.05;;;1.02;;
57247;SDS011;55809;46.618;10.764;2024-01-30T02:14:13;2.03;;;0.68;;
57247;SDS011;55809;46.618;10.764;2024-01-30T02:16:40;1.70;;;0.77;;
57247;SDS011;55809;46.618;10.764;2024-01-30T02:19:07;1.98;;;0.63;;
57247;SDS011;55809;46.618;10.764;2024-01-30T02:21:41;1.75;;;0.77;;
57247;SDS011;55809;46.618;10.764;2024-01-30T02:24:08;2.88;;;0.80;;
57247;SDS011;55809;46.618;10.764;2024-01-30T02:26:35;4.55;;;0.85;;
57247;SDS011;55809;46.618;10.764;2024-01-30T02:29:02;2.63;;;1.10;;
57247;SDS011;55809;46.618;10.764;2024-01-30T02:31:29;2.88;;;0.93;;
57247;SDS011;55809;46.618;10.764;2024-01-30T02:33:56;3.40;;;1.20;;
57247;SDS011;55809;46.618;10.764;2024-01-30T02:36:23;2.33;;;0.77;;
57247;SDS011;55809;46.618;10.764;2024-01-30T02:38:51;2.33;;;0.95;;
57247;SDS011;55809;46.618;10.764;2024-01-30T02:41:18;2.22;;;0.88;;
57247;SDS011;55809;46.618;10.764;2024-01-30T02:43:45;2.83;;;0.98;;
57247;SDS011;55809;46.618;10.764;2024-01-30T02:46:12;4.00;;;1.08;;
57247;SDS011;55809;46.618;10.764;2024-01-30T02:48:39;3.50;;;1.30;;
57247;SDS011;55809;46.618;10.764;2024-01-30T02:51:06;2.90;;;0.98;;
57247;SDS011;55809;46.618;10.764;2024-01-30T02:53:32;3.95;;;1.15;;
57247;SDS011;55809;46.618;10.764;2024-01-30T02:56:01;1.50;;;0.60;;
57247;SDS011;55809;46.618;10.764;2024-01-30T02:58:28;2.30;;;0.50;;
57247;SDS011;55809;46.618;10.764;2024-01-30T03:00:55;1.58;;;0.60;;
57247;SDS011;55809;46.618;10.764;2024-01-30T03:03:22;2.20;;;0.60;;
57247;SDS011;55809;46.618;10.764;2024-01-30T03:05:49;2.67;;;0.85;;
57247;SDS011;55809;46.618;10.764;2024-01-30T03:08:16;2.13;;;0.80;;
57247;SDS011;55809;46.618;10.764;2024-01-30T03:10:43;1.20;;;0.60;;
57247;SDS011;55809;46.618;10.764;2024-01-30T03:13:11;2.00;;;0.88;;
57247;SDS011;55809;46.618;10.764;2024-01-30T03:15:38;2.22;;;0.70;;
57247;SDS011;55809;46.618;10.764;2024-01-30T03:18:05;2.53;;;0.80;;
57247;SDS011;55809;46.618;10.764;2024-01-30T03:20:32;3.80;;;0.93;;
57247;SDS011;55809;46.618;10.764;2024-01-30T03:22:59;2.83;;;1.00;;
57247;SDS011;55809;46.618;10.764;2024-01-30T03:25:27;3.13;;;0.80;;
57247;SDS011;55809;46.618;10.764;2024-01-30T03:27:54;3.33;;;0.80;;
57247;SDS011;55809;46.618;10.764;2024-01-30T03:30:22;3.28;;;1.00;;
57247;SDS011;55809;46.618;10.764;2024-01-30T03:32:49;2.17;;;0.70;;
57247;SDS011;55809;46.618;10.764;2024-01-30T03:35:16;3.17;;;0.90;;
57247;SDS011;55809;46.618;10.764;2024-01-30T03:37:45;2.63;;;1.00;;
57247;SDS011;55809;46.618;10.764;2024-01-30T03:40:12;3.05;;;0.80;;
57247;SDS011;55809;46.618;10.764;2024-01-30T03:42:40;2.00;;;0.95;;
57247;SDS011;55809;46.618;10.764;2024-01-30T03:45:07;2.92;;;0.77;;
57247;SDS011;55809;46.618;10.764;2024-01-30T03:47:36;3.13;;;1.10;;
57247;SDS011;55809;46.618;10.764;2024-01-30T03:50:03;2.67;;;1.00;;
57247;SDS011;55809;46.618;10.764;2024-01-30T03:52:30;2.15;;;0.77;;
57247;SDS011;55809;46.618;10.764;2024-01-30T03:54:57;1.98;;;0.88;;
57247;SDS011;55809;46.618;10.764;2024-01-30T03:57:25;2.25;;;0.82;;
57247;SDS011;55809;46.618;10.764;2024-01-30T03:59:52;2.38;;;1.02;;
57247;SDS011;55809;46.618;10.764;2024-01-30T04:02:19;0.75;;;0.55;;
57247;SDS011;55809;46.618;10.764;2024-01-30T04:04:47;2.47;;;0.90;;
57247;SDS011;55809;46.618;10.764;2024-01-30T04:07:14;2.28;;;0.77;;
57247;SDS011;55809;46.618;10.764;2024-01-30T04:09:41;1.50;;;0.57;;
57247;SDS011;55809;46.618;10.764;2024-01-30T04:12:08;2.55;;;0.73;;
57247;SDS011;55809;46.618;10.764;2024-01-30T04:14:34;5.72;;;1.60;;
57247;SDS011;55809;46.618;10.764;2024-01-30T04:17:01;5.50;;;1.85;;
57247;SDS011;55809;46.618;10.764;2024-01-30T04:19:28;5.28;;;2.05;;
57247;SDS011;55809;46.618;10.764;2024-01-30T04:21:57;7.30;;;1.88;;
57247;SDS011;55809;46.618;10.764;2024-01-30T04:24:24;3.55;;;1.35;;
57247;SDS011;55809;46.618;10.764;2024-01-30T04:26:50;4.03;;;1.35;;
57247;SDS011;55809;46.618;10.764;2024-01-30T04:29:17;4.88;;;1.63;;
57247;SDS011;55809;46.618;10.764;2024-01-30T04:31:45;5.88;;;1.95;;
57247;SDS011;55809;46.618;10.764;2024-01-30T04:34:12;5.72;;;1.45;;
57247;SDS011;55809;46.618;10.764;2024-01-30T04:36:39;5.72;;;1.90;;
57247;SDS011;55809;46.618;10.764;2024-01-30T04:39:07;3.55;;;1.55;;
57247;SDS011;55809;46.618;10.764;2024-01-30T04:41:34;6.32;;;2.10;;
57247;SDS011;55809;46.618;10.764;2024-01-30T04:44:01;4.55;;;1.50;;
57247;SDS011;55809;46.618;10.764;2024-01-30T04:46:28;3.70;;;1.40;;
57247;SDS011;55809;46.618;10.764;2024-01-30T04:48:55;1.98;;;0.77;;
57247;SDS011;55809;46.618;10.764;2024-01-30T04:51:21;2.30;;;0.73;;
57247;SDS011;55809;46.618;10.764;2024-01-30T04:53:48;1.48;;;0.60;;
57247;SDS011;55809;46.618;10.764;2024-01-30T04:56:17;2.13;;;0.60;;
57247;SDS011;55809;46.618;10.764;2024-01-30T04:58:43;1.40;;;0.77;;
57247;SDS011;55809;46.618;10.764;2024-01-30T05:01:14;1.35;;;0.50;;
57247;SDS011;55809;46.618;10.764;2024-01-30T05:03:41;0.88;;;0.25;;
57247;SDS011;55809;46.618;10.764;2024-01-30T05:06:08;0.95;;;0.40;;
57247;SDS011;55809;46.618;10.764;2024-01-30T05:08:35;1.52;;;0.73;;
57247;SDS011;55809;46.618;10.764;2024-01-30T05:11:03;1.20;;;0.70;;
57247;SDS011;55809;46.618;10.764;2024-01-30T05:13:32;1.27;;;0.40;;
57247;SDS011;55809;46.618;10.764;2024-01-30T05:16:01;1.40;;;0.60;;
57247;SDS011;55809;46.618;10.764;2024-01-30T05:18:28;0.75;;;0.32;;
57247;SDS011;55809;46.618;10.764;2024-01-30T05:20:55;1.85;;;0.50;;
57247;SDS011;55809;46.618;10.764;2024-01-30T05:23:22;1.90;;;0.40;;
57247;SDS011;55809;46.618;10.764;2024-01-30T05:25:49;1.25;;;0.30;;
57247;SDS011;55809;46.618;10.764;2024-01-30T05:28:16;0.98;;;0.45;;
57247;SDS011;55809;46.618;10.764;2024-01-30T05:30:44;0.30;;;0.22;;
57247;SDS011;55809;46.618;10.764;2024-01-30T05:33:11;1.92;;;0.38;;
57247;SDS011;55809;46.618;10.764;2024-01-30T05:35:38;2.67;;;0.70;;
57247;SDS011;55809;46.618;10.764;2024-01-30T05:38:05;3.15;;;0.50;;
57247;SDS011;55809;46.618;10.764;2024-01-30T05:40:32;1.00;;;0.40;;
57247;SDS011;55809;46.618;10.764;2024-01-30T05:42:58;0.73;;;0.40;;
57247;SDS011;55809;46.618;10.764;2024-01-30T05:45:27;1.20;;;0.60;;
57247;SDS011;55809;46.618;10.764;2024-01-30T05:47:56;1.48;;;0.40;;
57247;SDS011;55809;46.618;10.764;2024-01-30T05:50:22;1.48;;;0.68;;
57247;SDS011;55809;46.618;10.764;2024-01-30T05:52:51;3.75;;;0.55;;
57247;SDS011;55809;46.618;10.764;2024-01-30T05:55:18;1.17;;;0.40;;
57247;SDS011;55809;46.618;10.764;2024-01-30T05:57:45;2.20;;;0.57;;
57247;SDS011;55809;46.618;10.764;2024-01-30T06:00:12;1.80;;;0.60;;
57247;SDS011;55809;46.618;10.764;2024-01-30T06:02:39;2.08;;;0.50;;
57247;SDS011;55809;46.618;10.764;2024-01-30T06:05:08;1.75;;;0.68;;
57247;SDS011;55809;46.618;10.764;2024-01-30T06:07:35;4.10;;;0.80;;
57247;SDS011;55809;46.618;10.764;2024-01-30T06:10:02;2.35;;;0.82;;
57247;SDS011;55809;46.618;10.764;2024-01-30T06:12:29;1.50;;;0.47;;
57247;SDS011;55809;46.618;10.764;2024-01-30T06:14:56;2.13;;;0.40;;
57247;SDS011;55809;46.618;10.764;2024-01-30T06:17:23;3.15;;;0.75;;
57247;SDS011;55809;46.618;10.764;2024-01-30T06:19:50;2.10;;;0.60;;
57247;SDS011;55809;46.618;10.764;2024-01-30T06:22:18;1.92;;;0.60;;
57247;SDS011;55809;46.618;10.764;2024-01-30T06:24:45;3.58;;;0.70;;
57247;SDS011;55809;46.618;10.764;2024-01-30T06:27:13;1.98;;;0.82;;
57247;SDS011;55809;46.618;10.764;2024-01-30T06:29:40;2.20;;;0.73;;
57247;SDS011;55809;46.618;10.764;2024-01-30T06:32:08;2.72;;;0.50;;
57247;SDS011;55809;46.618;10.764;2024-01-30T06:34:35;1.45;;;0.60;;
57247;SDS011;55809;46.618;10.764;2024-01-30T06:37:04;1.23;;;0.50;;
57247;SDS011;55809;46.618;10.764;2024-01-30T06:39:32;2.08;;;0.57;;
57247;SDS011;55809;46.618;10.764;2024-01-30T06:41:59;1.52;;;0.50;;
57247;SDS011;55809;46.618;10.764;2024-01-30T06:44:25;1.83;;;0.68;;
57247;SDS011;55809;46.618;10.764;2024-01-30T06:46:53;3.53;;;0.95;;
57247;SDS011;55809;46.618;10.764;2024-01-30T06:49:20;4.07;;;1.00;;
57247;SDS011;55809;46.618;10.764;2024-01-30T06:51:48;2.88;;;0.95;;
57247;SDS011;55809;46.618;10.764;2024-01-30T06:54:14;1.92;;;0.60;;
57247;SDS011;55809;46.618;10.764;2024-01-30T06:56:43;2.28;;;0.70;;
57247;SDS011;55809;46.618;10.764;2024-01-30T06:59:10;1.58;;;0.50;;
57247;SDS011;55809;46.618;10.764;2024-01-30T07:01:36;2.58;;;0.80;;
57247;SDS011;55809;46.618;10.764;2024-01-30T07:04:03;3.00;;;1.20;;
57247;SDS011;55809;46.618;10.764;2024-01-30T07:06:30;4.70;;;1.35;;
57247;SDS011;55809;46.618;10.764;2024-01-30T07:08:57;6.55;;;1.42;;
57247;SDS011;55809;46.618;10.764;2024-01-30T07:11:24;9.48;;;3.90;;
57247;SDS011;55809;46.618;10.764;2024-01-30T07:13:53;11.07;;;5.90;;
57247;SDS011;55809;46.618;10.764;2024-01-30T07:16:20;6.10;;;2.45;;
57247;SDS011;55809;46.618;10.764;2024-01-30T07:18:47;4.18;;;1.70;;
57247;SDS011;55809;46.618;10.764;2024-01-30T07:21:14;3.78;;;1.08;;
57247;SDS011;55809;46.618;10.764;2024-01-30T07:23:42;2.70;;;1.02;;
57247;SDS011;55809;46.618;10.764;2024-01-30T07:26:09;2.15;;;0.90;;
57247;SDS011;55809;46.618;10.764;2024-01-30T07:28:35;4.15;;;1.40;;
57247;SDS011;55809;46.618;10.764;2024-01-30T07:31:04;4.85;;;2.13;;
57247;SDS011;55809;46.618;10.764;2024-01-30T07:33:31;4.18;;;1.45;;
57247;SDS011;55809;46.618;10.764;2024-01-30T07:35:58;3.22;;;1.70;;
57247;SDS011;55809;46.618;10.764;2024-01-30T07:38:25;6.40;;;2.67;;
57247;SDS011;55809;46.618;10.764;2024-01-30T07:40:52;5.70;;;2.65;;
57247;SDS011;55809;46.618;10.764;2024-01-30T07:43:19;7.25;;;2.88;;
57247;SDS011;55809;46.618;10.764;2024-01-30T07:45:46;7.03;;;2.90;;
57247;SDS011;55809;46.618;10.764;2024-01-30T07:48:14;6.47;;;2.53;;
57247;SDS011;55809;46.618;10.764;2024-01-30T07:50:41;5.82;;;2.40;;
57247;SDS011;55809;46.618;10.764;2024-01-30T07:53:08;6.38;;;2.88;;
57247;SDS011;55809;46.618;10.764;2024-01-30T07:55:35;7.28;;;3.40;;
57247;SDS011;55809;46.618;10.764;2024-01-30T07:58:02;6.05;;;2.97;;
57247;SDS011;55809;46.618;10.764;2024-01-30T08:00:29;5.60;;;2.33;;
57247;SDS011;55809;46.618;10.764;2024-01-30T08:02:56;4.93;;;1.50;;
57247;SDS011;55809;46.618;10.764;2024-01-30T08:05:25;7.47;;;2.83;;
57247;SDS011;55809;46.618;10.764;2024-01-30T08:07:52;6.63;;;2.90;;
57247;SDS011;55809;46.618;10.764;2024-01-30T08:10:19;5.05;;;1.73;;
57247;SDS011;55809;46.618;10.764;2024-01-30T08:12:46;4.55;;;1.40;;
57247;SDS011;55809;46.618;10.764;2024-01-30T08:15:13;4.07;;;1.42;;
57247;SDS011;55809;46.618;10.764;2024-01-30T08:17:40;4.47;;;1.10;;
57247;SDS011;55809;46.618;10.764;2024-01-30T08:20:07;2.00;;;0.70;;
57247;SDS011;55809;46.618;10.764;2024-01-30T08:22:37;1.67;;;0.60;;
57247;SDS011;55809;46.618;10.764;2024-01-30T08:25:05;1.33;;;0.50;;
57247;SDS011;55809;46.618;10.764;2024-01-30T08:27:32;2.33;;;0.60;;
57247;SDS011;55809;46.618;10.764;2024-01-30T08:30:00;3.85;;;0.73;;
57247;SDS011;55809;46.618;10.764;2024-01-30T08:32:27;2.72;;;0.75;;
57247;SDS011;55809;46.618;10.764;2024-01-30T08:34:54;1.77;;;0.50;;
57247;SDS011;55809;46.618;10.764;2024-01-30T08:37:21;3.33;;;0.50;;
57247;SDS011;55809;46.618;10.764;2024-01-30T08:39:49;1.75;;;0.50;;
57247;SDS011;55809;46.618;10.764;2024-01-30T08:42:16;0.98;;;0.38;;
57247;SDS011;55809;46.618;10.764;2024-01-30T08:44:47;1.98;;;1.05;;
57247;SDS011;55809;46.618;10.764;2024-01-30T08:47:14;1.85;;;0.60;;
57247;SDS011;55809;46.618;10.764;2024-01-30T08:49:43;2.65;;;0.80;;
57247;SDS011;55809;46.618;10.764;2024-01-30T08:52:10;1.85;;;0.70;;
57247;SDS011;55809;46.618;10.764;2024-01-30T08:54:37;6.75;;;1.63;;
57247;SDS011;55809;46.618;10.764;2024-01-30T08:57:06;3.45;;;0.90;;
57247;SDS011;55809;46.618;10.764;2024-01-30T08:59:33;7.07;;;0.95;;
57247;SDS011;55809;46.618;10.764;2024-01-30T09:02:00;3.58;;;0.93;;
57247;SDS011;55809;46.618;10.764;2024-01-30T09:04:27;2.70;;;0.90;;
57247;SDS011;55809;46.618;10.764;2024-01-30T09:06:54;3.55;;;1.40;;
57247;SDS011;55809;46.618;10.764;2024-01-30T09:09:21;3.03;;;1.45;;
57247;SDS011;55809;46.618;10.764;2024-01-30T09:11:48;4.78;;;1.20;;
57247;SDS011;55809;46.618;10.764;2024-01-30T09:14:16;3.78;;;0.98;;
57247;SDS011;55809;46.618;10.764;2024-01-30T09:16:44;7.28;;;1.48;;
57247;SDS011;55809;46.618;10.764;2024-01-30T09:19:11;7.63;;;1.30;;
57247;SDS011;55809;46.618;10.764;2024-01-30T09:21:38;5.47;;;1.13;;
57247;SDS011;55809;46.618;10.764;2024-01-30T09:24:05;4.65;;;0.82;;
57247;SDS011;55809;46.618;10.764;2024-01-30T09:26:32;5.25;;;0.77;;
57247;SDS011;55809;46.618;10.764;2024-01-30T09:28:59;4.28;;;1.30;;
57247;SDS011;55809;46.618;10.764;2024-01-30T09:31:28;3.28;;;0.75;;
57247;SDS011;55809;46.618;10.764;2024-01-30T09:33:55;2.53;;;1.38;;
57247;SDS011;55809;46.618;10.764;2024-01-30T09:36:22;2.47;;;0.57;;
57247;SDS011;55809;46.618;10.764;2024-01-30T09:38:49;3.20;;;0.73;;
57247;SDS011;55809;46.618;10.764;2024-01-30T09:41:16;4.45;;;1.25;;
57247;SDS011;55809;46.618;10.764;2024-01-30T09:43:46;1.60;;;0.75;;
57247;SDS011;55809;46.618;10.764;2024-01-30T09:46:14;2.78;;;0.95;;
57247;SDS011;55809;46.618;10.764;2024-01-30T09:48:45;2.53;;;0.80;;
57247;SDS011;55809;46.618;10.764;2024-01-30T09:51:14;3.30;;;0.90;;
57247;SDS011;55809;46.618;10.764;2024-01-30T09:53:42;2.30;;;1.00;;
57247;SDS011;55809;46.618;10.764;2024-01-30T09:56:10;2.45;;;0.90;;
57247;SDS011;55809;46.618;10.764;2024-01-30T09:58:38;1.83;;;0.68;;
57247;SDS011;55809;46.618;10.764;2024-01-30T10:01:06;2.30;;;0.70;;
57247;SDS011;55809;46.618;10.764;2024-01-30T10:03:32;4.93;;;1.20;;
57247;SDS011;55809;46.618;10.764;2024-01-30T10:06:01;2.60;;;0.68;;
57247;SDS011;55809;46.618;10.764;2024-01-30T10:08:28;2.63;;;0.80;;
57247;SDS011;55809;46.618;10.764;2024-01-30T10:10:56;2.40;;;0.70;;
57247;SDS011;55809;46.618;10.764;2024-01-30T10:13:23;3.80;;;0.88;;
57247;SDS011;55809;46.618;10.764;2024-01-30T10:15:50;2.58;;;0.80;;
57247;SDS011;55809;46.618;10.764;2024-01-30T10:18:17;2.33;;;0.85;;
57247;SDS011;55809;46.618;10.764;2024-01-30T10:20:44;1.38;;;0.60;;
57247;SDS011;55809;46.618;10.764;2024-01-30T10:23:13;2.35;;;0.80;;
57247;SDS011;55809;46.618;10.764;2024-01-30T10:25:40;1.60;;;0.70;;
57247;SDS011;55809;46.618;10.764;2024-01-30T10:28:08;2.13;;;0.80;;
57247;SDS011;55809;46.618;10.764;2024-01-30T10:30:35;3.03;;;0.80;;
57247;SDS011;55809;46.618;10.764;2024-01-30T10:33:02;3.28;;;1.00;;
57247;SDS011;55809;46.618;10.764;2024-01-30T10:35:29;2.08;;;0.80;;
57247;SDS011;55809;46.618;10.764;2024-01-30T10:37:56;4.35;;;0.82;;
57247;SDS011;55809;46.618;10.764;2024-01-30T10:40:25;2.00;;;0.73;;
57247;SDS011;55809;46.618;10.764;2024-01-30T10:42:55;2.15;;;0.75;;
57247;SDS011;55809;46.618;10.764;2024-01-30T10:45:22;2.17;;;0.70;;
57247;SDS011;55809;46.618;10.764;2024-01-30T10:47:53;1.55;;;0.70;;
57247;SDS011;55809;46.618;10.764;2024-01-30T10:50:23;2.65;;;0.98;;
57247;SDS011;55809;46.618;10.764;2024-01-30T10:52:51;31.60;;;4.88;;
57247;SDS011;55809;46.618;10.764;2024-01-30T10:55:19;3.58;;;1.00;;
57247;SDS011;55809;46.618;10.764;2024-01-30T10:57:50;1.70;;;0.75;;
57247;SDS011;55809;46.618;10.764;2024-01-30T11:00:17;31.15;;;4.80;;
57247;SDS011;55809;46.618;10.764;2024-01-30T11:02:48;3.13;;;0.90;;
57247;SDS011;55809;46.618;10.764;2024-01-30T11:05:20;5.50;;;1.40;;
57247;SDS011;55809;46.618;10.764;2024-01-30T11:07:51;9.23;;;1.55;;
57247;SDS011;55809;46.618;10.764;2024-01-30T11:10:18;9.90;;;1.77;;
57247;SDS011;55809;46.618;10.764;2024-01-30T11:12:45;7.95;;;1.42;;
57247;SDS011;55809;46.618;10.764;2024-01-30T11:15:15;9.88;;;1.25;;
57247;SDS011;55809;46.618;10.764;2024-01-30T11:17:43;2.93;;;0.80;;
57247;SDS011;55809;46.618;10.764;2024-01-30T11:20:11;2.78;;;0.60;;
57247;SDS011;55809;46.618;10.764;2024-01-30T11:22:41;4.78;;;1.10;;
57247;SDS011;55809;46.618;10.764;2024-01-30T11:25:11;3.17;;;1.00;;
57247;SDS011;55809;46.618;10.764;2024-01-30T11:27:40;2.83;;;1.20;;
57247;SDS011;55809;46.618;10.764;2024-01-30T11:30:08;2.40;;;0.95;;
57247;SDS011;55809;46.618;10.764;2024-01-30T11:32:37;3.65;;;0.73;;
57247;SDS011;55809;46.618;10.764;2024-01-30T11:35:04;2.63;;;0.70;;
57247;SDS011;55809;46.618;10.764;2024-01-30T11:37:34;1.63;;;0.90;;
57247;SDS011;55809;46.618;10.764;2024-01-30T11:40:04;1.48;;;0.80;;
57247;SDS011;55809;46.618;10.764;2024-01-30T11:42:32;0.95;;;0.57;;
57247;SDS011;55809;46.618;10.764;2024-01-30T11:45:00;1.77;;;0.60;;
57247;SDS011;55809;46.618;10.764;2024-01-30T11:47:28;1.90;;;0.55;;
57247;SDS011;55809;46.618;10.764;2024-01-30T11:49:57;4.72;;;0.70;;
57247;SDS011;55809;46.618;10.764;2024-01-30T11:52:24;3.30;;;0.80;;
57247;SDS011;55809;46.618;10.764;2024-01-30T11:54:51;1.52;;;0.80;;
57247;SDS011;55809;46.618;10.764;2024-01-30T11:57:18;2.47;;;0.60;;
57247;SDS011;55809;46.618;10.764;2024-01-30T11:59:45;5.25;;;1.35;;
57247;SDS011;55809;46.618;10.764;2024-01-30T12:02:15;2.78;;;1.20;;
57247;SDS011;55809;46.618;10.764;2024-01-30T12:04:42;4.18;;;1.30;;
57247;SDS011;55809;46.618;10.764;2024-01-30T12:07:10;5.07;;;1.65;;
57247;SDS011;55809;46.618;10.764;2024-01-30T12:09:38;3.88;;;1.50;;
57247;SDS011;55809;46.618;10.764;2024-01-30T12:12:06;4.47;;;1.30;;
57247;SDS011;55809;46.618;10.764;2024-01-30T12:14:37;4.63;;;1.05;;
57247;SDS011;55809;46.618;10.764;2024-01-30T12:17:04;2.30;;;0.88;;
57247;SDS011;55809;46.618;10.764;2024-01-30T12:19:32;2.20;;;1.00;;
57247;SDS011;55809;46.618;10.764;2024-01-30T12:21:59;3.75;;;1.00;;
57247;SDS011;55809;46.618;10.764;2024-01-30T12:24:28;2.85;;;1.00;;
57247;SDS011;55809;46.618;10.764;2024-01-30T12:26:56;1.98;;;0.90;;
57247;SDS011;55809;46.618;10.764;2024-01-30T12:29:24;1.88;;;0.65;;
57247;SDS011;55809;46.618;10.764;2024-01-30T12:31:52;6.28;;;1.20;;
57247;SDS011;55809;46.618;10.764;2024-01-30T12:34:20;2.80;;;0.98;;
57247;SDS011;55809;46.618;10.764;2024-01-30T12:36:47;1.75;;;0.80;;
57247;SDS011;55809;46.618;10.764;2024-01-30T12:39:14;1.95;;;0.73;;
57247;SDS011;55809;46.618;10.764;2024-01-30T12:41:43;2.97;;;0.82;;
57247;SDS011;55809;46.618;10.764;2024-01-30T12:44:10;2.55;;;0.80;;
57247;SDS011;55809;46.618;10.764;2024-01-30T12:46:37;2.50;;;0.80;;
57247;SDS011;55809;46.618;10.764;2024-01-30T12:49:03;2.22;;;0.80;;
57247;SDS011;55809;46.618;10.764;2024-01-30T12:51:30;2.47;;;0.88;;
57247;SDS011;55809;46.618;10.764;2024-01-30T12:54:04;2.47;;;0.82;;
57247;SDS011;55809;46.618;10.764;2024-01-30T12:56:31;3.72;;;0.85;;
57247;SDS011;55809;46.618;10.764;2024-01-30T12:59:00;2.08;;;0.70;;
57247;SDS011;55809;46.618;10.764;2024-01-30T13:01:27;3.15;;;0.70;;
57247;SDS011;55809;46.618;10.764;2024-01-30T13:03:54;3.13;;;1.25;;
57247;SDS011;55809;46.618;10.764;2024-01-30T13:06:23;3.03;;;1.48;;
57247;SDS011;55809;46.618;10.764;2024-01-30T13:08:50;2.85;;;1.13;;
57247;SDS011;55809;46.618;10.764;2024-01-30T13:11:17;7.32;;;1.70;;
57247;SDS011;55809;46.618;10.764;2024-01-30T13:13:44;2.63;;;0.80;;
57247;SDS011;55809;46.618;10.764;2024-01-30T13:16:12;2.47;;;0.93;;
57247;SDS011;55809;46.618;10.764;2024-01-30T13:18:39;2.22;;;0.90;;
57247;SDS011;55809;46.618;10.764;2024-01-30T13:21:06;3.17;;;0.82;;
57247;SDS011;55809;46.618;10.764;2024-01-30T13:23:33;1.88;;;0.70;;
57247;SDS011;55809;46.618;10.764;2024-01-30T13:26:00;10.93;;;1.40;;
57247;SDS011;55809;46.618;10.764;2024-01-30T13:28:27;4.43;;;0.77;;
57247;SDS011;55809;46.618;10.764;2024-01-30T13:30:54;13.38;;;2.50;;
57247;SDS011;55809;46.618;10.764;2024-01-30T13:33:22;17.42;;;4.03;;
57247;SDS011;55809;46.618;10.764;2024-01-30T13:35:49;4.75;;;1.42;;
57247;SDS011;55809;46.618;10.764;2024-01-30T13:38:16;3.88;;;1.08;;
57247;SDS011;55809;46.618;10.764;2024-01-30T13:40:43;1.48;;;0.50;;
57247;SDS011;55809;46.618;10.764;2024-01-30T13:43:10;2.30;;;0.90;;
57247;SDS011;55809;46.618;10.764;2024-01-30T13:45:37;3.03;;;0.98;;
57247;SDS011;55809;46.618;10.764;2024-01-30T13:48:04;0.88;;;0.50;;
57247;SDS011;55809;46.618;10.764;2024-01-30T13:50:33;2.05;;;0.55;;
57247;SDS011;55809;46.618;10.764;2024-01-30T13:53:02;1.85;;;0.68;;
57247;SDS011;55809;46.618;10.764;2024-01-30T13:55:29;1.52;;;0.65;;
57247;SDS011;55809;46.618;10.764;2024-01-30T13:57:56;2.10;;;0.60;;
57247;SDS011;55809;46.618;10.764;2024-01-30T14:00:23;1.70;;;0.60;;
57247;SDS011;55809;46.618;10.764;2024-01-30T14:02:51;6.25;;;0.82;;
57247;SDS011;55809;46.618;10.764;2024-01-30T14:05:19;2.25;;;0.60;;
57247;SDS011;55809;46.618;10.764;2024-01-30T14:07:48;1.30;;;0.50;;
57247;SDS011;55809;46.618;10.764;2024-01-30T14:10:16;1.60;;;0.40;;
57247;SDS011;55809;46.618;10.764;2024-01-30T14:12:43;1.10;;;0.40;;
57247;SDS011;55809;46.618;10.764;2024-01-30T14:15:10;1.48;;;0.63;;
57247;SDS011;55809;46.618;10.764;2024-01-30T14:17:38;2.40;;;0.50;;
57247;SDS011;55809;46.618;10.764;2024-01-30T14:20:06;2.38;;;0.50;;
57247;SDS011;55809;46.618;10.764;2024-01-30T14:22:33;0.75;;;0.40;;
57247;SDS011;55809;46.618;10.764;2024-01-30T14:25:02;1.48;;;0.50;;
57247;SDS011;55809;46.618;10.764;2024-01-30T14:27:30;0.93;;;0.40;;
57247;SDS011;55809;46.618;10.764;2024-01-30T14:29:57;0.75;;;0.30;;
57247;SDS011;55809;46.618;10.764;2024-01-30T14:32:24;2.83;;;0.55;;
57247;SDS011;55809;46.618;10.764;2024-01-30T14:34:51;0.85;;;0.40;;